createdAt,value
2023-01-25T00:01:23.149Z,103415.06
2023-01-25T00:04:08.109Z,103421.13
2023-01-25T00:06:53.464Z,103411.59
2023-01-25T00:09:38.692Z,103432.38
2023-01-25T00:12:24.118Z,103430.63
2023-01-25T00:15:09.911Z,103425.47
2023-01-25T00:17:55.555Z,103421.13
2023-01-25T00:20:40.514Z,103383.94
2023-01-25T00:23:25.687Z,103416.81
2023-01-25T00:26:11.313Z,103422.84
2023-01-25T00:28:56.443Z,103428.94
2023-01-25T00:31:47.648Z,103383.06
2023-01-25T00:34:44.077Z,103415.94
2023-01-25T00:37:36.483Z,103416.81
2023-01-25T00:40:21.347Z,103418.56
2023-01-25T00:43:06.425Z,103402.06
2023-01-25T00:45:51.676Z,103398.63
2023-01-25T00:48:37.079Z,103406.41
2023-01-25T00:51:22.689Z,103410.75
2023-01-25T00:54:07.569Z,103407.31
2023-01-25T00:56:53.851Z,103409.03
2023-01-25T00:59:38.781Z,103404.69
2023-01-25T01:02:24.046Z,103406.41
2023-01-25T01:05:09.952Z,103401.22
2023-01-25T01:07:56.105Z,103383.94
2023-01-25T01:10:44.442Z,103374.41
2023-01-25T01:13:30.448Z,103382.19
2023-01-25T01:16:15.538Z,103389.97
2023-01-25T01:19:01.178Z,103392.59
2023-01-25T01:21:46.285Z,103368.34
2023-01-25T01:24:32.142Z,103390.84
2023-01-25T01:27:17.487Z,103384.78
2023-01-25T01:30:02.701Z,103365.72
2023-01-25T01:32:48.076Z,103392.56
2023-01-25T01:35:33.308Z,103391.69
2023-01-25T01:38:18.594Z,103391.69
2023-01-25T01:41:03.785Z,103372.66
2023-01-25T01:43:49.689Z,103391.69
2023-01-25T01:46:37.414Z,103389.97
2023-01-25T01:49:29.174Z,103383.94
2023-01-25T01:52:17.144Z,103383.03
2023-01-25T01:55:11.732Z,103386.50
2023-01-25T01:57:59.393Z,103379.59
2023-01-25T02:00:44.441Z,103383.91
2023-01-25T02:03:30.522Z,103380.44
2023-01-25T02:06:24.641Z,103382.19
2023-01-25T02:09:09.714Z,103379.59
2023-01-25T02:11:57.410Z,103357.09
2023-01-25T02:14:48.384Z,103374.41
2023-01-25T02:17:38.853Z,103382.19
2023-01-25T02:20:37.322Z,103357.97
2023-01-25T02:23:22.324Z,103366.63
2023-01-25T02:26:07.989Z,103324.19
2023-01-25T02:28:59.635Z,103369.19
2023-01-25T02:31:47.159Z,103354.50
2023-01-25T02:34:32.710Z,103342.38
2023-01-25T02:37:17.820Z,103340.66
2023-01-25T02:40:05.662Z,103351.88
2023-01-25T02:42:50.814Z,103367.47
2023-01-25T02:45:35.702Z,103361.44
2023-01-25T02:48:20.661Z,103361.44
2023-01-25T02:51:09.924Z,103361.44
2023-01-25T02:53:56.094Z,103354.50
2023-01-25T02:56:41.183Z,103363.16
2023-01-25T02:59:26.489Z,103354.50
2023-01-25T03:02:11.780Z,103363.13
2023-01-25T03:04:56.977Z,103346.72
2023-01-25T03:07:42.328Z,103330.28
2023-01-25T03:10:27.686Z,103355.34
2023-01-25T03:13:13.648Z,103354.47
2023-01-25T03:16:11.112Z,103350.16
2023-01-25T03:18:56.460Z,103350.16
2023-01-25T03:21:41.838Z,103348.44
2023-01-25T03:24:27.144Z,103346.72
2023-01-25T03:27:14.079Z,103344.13
2023-01-25T03:29:59.238Z,103339.78
2023-01-25T03:32:44.250Z,103348.44
2023-01-25T03:35:29.190Z,103345.84
2023-01-25T03:38:14.281Z,103336.34
2023-01-25T03:40:59.252Z,103333.72
2023-01-25T03:43:44.392Z,103327.69
2023-01-25T03:46:29.363Z,103308.66
2023-01-25T03:49:14.266Z,103333.72
2023-01-25T03:51:59.136Z,103312.09
2023-01-25T03:54:44.244Z,103324.22
2023-01-25T03:57:29.335Z,103332.03
2023-01-25T04:00:14.647Z,103331.13
2023-01-25T04:02:59.694Z,103329.38
2023-01-25T04:05:44.617Z,103332.00
2023-01-25T04:08:29.922Z,103313.78
2023-01-25T04:11:14.988Z,103328.53
2023-01-25T04:14:00.048Z,103331.09
2023-01-25T04:16:45.460Z,103322.50
2023-01-25T04:19:30.581Z,103335.44
2023-01-25T04:22:16.550Z,103314.69
2023-01-25T04:25:01.653Z,103328.53
2023-01-25T04:27:46.886Z,103336.28
2023-01-25T04:30:32.087Z,103340.63
2023-01-25T04:33:17.736Z,103336.28
2023-01-25T04:36:03.106Z,103325.91
2023-01-25T04:38:51.527Z,103331.97
2023-01-25T04:41:36.575Z,103332.81
2023-01-25T04:44:21.680Z,103331.97
2023-01-25T04:47:06.795Z,103312.06
2023-01-25T04:49:51.818Z,103311.19
2023-01-25T04:52:36.765Z,103330.22
2023-01-25T04:55:22.276Z,103306.03
2023-01-25T04:58:07.550Z,103330.25
2023-01-25T05:00:52.513Z,103335.44
2023-01-25T05:03:37.692Z,103325.03
2023-01-25T05:06:23.143Z,103322.44
2023-01-25T05:09:09.964Z,103321.59
2023-01-25T05:11:55.233Z,103315.53
2023-01-25T05:14:40.543Z,103323.31
2023-01-25T05:17:25.787Z,103324.16
2023-01-25T05:20:11.626Z,103322.44
2023-01-25T05:22:56.890Z,103321.56
2023-01-25T05:26:01.797Z,103318.97
2023-01-25T05:28:47.126Z,103289.53
2023-01-25T05:31:31.896Z,103314.63
2023-01-25T05:34:16.987Z,103319.81
2023-01-25T05:37:02.991Z,103314.59
2023-01-25T05:39:48.175Z,103321.50
2023-01-25T05:42:33.544Z,103303.38
2023-01-25T05:45:18.787Z,103313.75
2023-01-25T05:48:04.202Z,103292.13
2023-01-25T05:50:49.533Z,103306.81
2023-01-25T05:53:34.693Z,103308.56
2023-01-25T05:56:20.017Z,103292.09
2023-01-25T05:59:05.048Z,103309.38
2023-01-25T06:01:50.325Z,103311.13
2023-01-25T06:04:35.451Z,103307.69
2023-01-25T06:07:20.410Z,103325.78
2023-01-25T06:10:05.840Z,103320.56
2023-01-25T06:12:51.209Z,103317.13
2023-01-25T06:15:36.320Z,103304.16
2023-01-25T06:18:22.514Z,103317.94
2023-01-25T06:21:07.568Z,103312.78
2023-01-25T06:23:52.831Z,103320.56
2023-01-25T06:26:38.033Z,103313.66
2023-01-25T06:29:23.033Z,103320.53
2023-01-25T06:32:07.975Z,103302.38
2023-01-25T06:34:53.208Z,103327.44
2023-01-25T06:37:38.339Z,103304.97
2023-01-25T06:40:24.072Z,103317.03
2023-01-25T06:43:10.036Z,103307.50
2023-01-25T06:46:00.552Z,103316.97
2023-01-25T06:48:45.910Z,103317.88
2023-01-25T06:51:31.246Z,103308.34
2023-01-25T06:54:16.393Z,103278.97
2023-01-25T06:57:01.620Z,103277.28
2023-01-25T06:59:46.577Z,103292.84
2023-01-25T07:02:31.724Z,103291.13
2023-01-25T07:05:17.098Z,103289.41
2023-01-25T07:08:02.452Z,103271.19
2023-01-25T07:10:56.855Z,103288.50
2023-01-25T07:13:43.398Z,103291.09
2023-01-25T07:16:28.489Z,103290.19
2023-01-25T07:19:13.667Z,103265.09
2023-01-25T07:21:58.863Z,103280.69
2023-01-25T07:24:49.839Z,103291.88
2023-01-25T07:27:35.253Z,103283.25
2023-01-25T07:30:21.698Z,103282.34
2023-01-25T07:33:06.917Z,103295.28
2023-01-25T07:35:51.848Z,103279.81
2023-01-25T07:38:37.203Z,103286.72
2023-01-25T07:41:23.471Z,103275.53
2023-01-25T07:44:10.239Z,103272.09
2023-01-25T07:46:55.222Z,103270.38
2023-01-25T07:49:40.675Z,103272.94
2023-01-25T07:52:26.545Z,103261.72
2023-01-25T07:55:12.051Z,103216.72
2023-01-25T07:57:57.526Z,103269.47
2023-01-25T08:00:42.657Z,103269.47
2023-01-25T08:03:27.584Z,103264.28
2023-01-25T08:06:13.494Z,103249.59
2023-01-25T08:08:59.615Z,103262.56
2023-01-25T08:11:44.889Z,103257.38
2023-01-25T08:14:30.116Z,103262.63
2023-01-25T08:26:36.273Z,103247.97
2023-01-25T08:29:12.810Z,103239.34
2023-01-25T08:31:57.794Z,103242.78
2023-01-25T08:34:42.991Z,103235.88
2023-01-25T08:37:29.635Z,103232.41
2023-01-25T08:40:14.734Z,103232.41
2023-01-25T08:42:59.811Z,103222.03
2023-01-25T08:45:45.253Z,103228.94
2023-01-25T08:48:30.390Z,103231.53
2023-01-25T08:51:16.445Z,103226.34
2023-01-25T08:54:06.037Z,103237.56
2023-01-25T08:56:52.012Z,103229.78
2023-01-25T08:59:37.106Z,103218.56
2023-01-25T09:02:22.166Z,103221.19
2023-01-25T09:05:07.627Z,103210.81
2023-01-25T09:07:52.937Z,103209.06
2023-01-25T09:10:37.969Z,103177.94
2023-01-25T09:13:23.248Z,103198.72
2023-01-25T09:16:11.213Z,103197.84
2023-01-25T09:19:02.513Z,103196.94
2023-01-25T09:21:48.341Z,103198.66
2023-01-25T09:24:37.013Z,103193.53
2023-01-25T09:27:22.328Z,103182.34
2023-01-25T09:30:16.627Z,103169.34
2023-01-25T09:33:04.900Z,103146.91
2023-01-25T09:35:49.953Z,103164.19
2023-01-25T09:38:35.626Z,103162.47
2023-01-25T09:41:39.581Z,103155.59
2023-01-25T09:44:36.770Z,103164.25
2023-01-25T09:47:44.950Z,103160.78
2023-01-25T09:50:45.377Z,103167.66
2023-01-25T09:53:35.661Z,103131.38
2023-01-25T09:56:29.468Z,103153.88
2023-01-25T09:59:19.885Z,103145.22
2023-01-25T10:02:28.266Z,103155.59
2023-01-25T10:05:21.705Z,103133.97
2023-01-25T10:08:19.543Z,103147.84
2023-01-25T10:11:14.942Z,103142.66
2023-01-25T10:14:00.518Z,103139.19
2023-01-25T10:16:50.070Z,103146.97
2023-01-25T10:19:53.782Z,103143.53
2023-01-25T10:22:51.369Z,103102.09
2023-01-25T10:25:46.588Z,103145.31
2023-01-25T10:28:54.410Z,103143.53
2023-01-25T10:31:54.107Z,103133.19
2023-01-25T10:34:55.827Z,103113.31
2023-01-25T10:37:41.970Z,103114.16
2023-01-25T10:40:40.728Z,103115.91
2023-01-25T10:43:25.900Z,103121.09
2023-01-25T10:46:25.502Z,103096.94
2023-01-25T10:49:22.858Z,103109.88
2023-01-25T10:52:26.300Z,103108.19
2023-01-25T10:55:18.516Z,103099.53
2023-01-25T10:58:03.402Z,103107.31
2023-01-25T11:00:51.836Z,103102.16
2023-01-25T11:03:44.599Z,103077.94
2023-01-25T11:06:37.146Z,103090.91
2023-01-25T11:09:22.252Z,103092.63
2023-01-25T11:12:18.476Z,103086.59
2023-01-25T11:15:24.666Z,103082.28
2023-01-25T11:18:18.686Z,103074.50
2023-01-25T11:21:11.514Z,103066.72
2023-01-25T11:24:07.207Z,103065.00
2023-01-25T11:27:22.698Z,103048.59
2023-01-25T11:30:21.631Z,103054.63
2023-01-25T11:33:11.701Z,103046.88
2023-01-25T11:36:14.035Z,103035.63
2023-01-25T11:39:20.804Z,103027.84
2023-01-25T11:42:08.736Z,103024.38
2023-01-25T11:45:19.333Z,103020.97
2023-01-25T11:48:26.076Z,103006.31
2023-01-25T11:51:25.628Z,102996.78
2023-01-25T11:54:25.738Z,103004.53
2023-01-25T11:57:20.656Z,102981.25
2023-01-25T12:00:24.129Z,102986.41
2023-01-25T12:03:36.287Z,102963.09
2023-01-25T12:06:30.539Z,102980.25
2023-01-25T12:09:39.476Z,102950.09
2023-01-25T12:12:55.646Z,102956.97
2023-01-25T12:15:49.965Z,102950.94
2023-01-25T12:18:49.183Z,102949.22
2023-01-25T12:21:52.779Z,102926.78
2023-01-25T12:25:20.703Z,102940.59
2023-01-25T12:28:21.073Z,102927.63
2023-01-25T12:31:32.236Z,102941.41
2023-01-25T12:34:26.465Z,102926.75
2023-01-25T12:37:27.952Z,102902.59
2023-01-25T12:40:18.385Z,102894.75
2023-01-25T12:43:05.329Z,102912.06
2023-01-25T12:45:53.006Z,102900.00
2023-01-25T12:48:43.222Z,102880.94
2023-01-25T12:51:35.856Z,102897.22
2023-01-25T12:54:32.353Z,102901.53
2023-01-25T12:57:29.820Z,102874.78
2023-01-25T13:00:18.906Z,102882.63
2023-01-25T13:03:03.827Z,102867.13
2023-01-25T13:05:57.280Z,102851.56
2023-01-25T13:09:03.864Z,102840.31
2023-01-25T13:11:49.744Z,102833.38
2023-01-25T13:14:40.330Z,102837.69
2023-01-25T13:17:34.814Z,102847.13
2023-01-25T13:20:41.895Z,102873.91
2023-01-25T13:23:34.798Z,102869.53
2023-01-25T13:26:25.549Z,102885.03
2023-01-25T13:29:31.668Z,102896.28
2023-01-25T13:32:25.834Z,102906.63
2023-01-25T13:35:31.388Z,102904.13
2023-01-25T13:38:28.814Z,102917.84
2023-01-25T13:41:16.901Z,102914.34
2023-01-25T13:44:28.241Z,102891.97
2023-01-25T13:47:17.608Z,102910.06
2023-01-25T13:50:18.581Z,102899.56
2023-01-25T13:53:25.129Z,102896.94
2023-01-25T13:56:29.374Z,102888.22
2023-01-25T13:59:28.136Z,102876.19
2023-01-25T14:02:21.803Z,102883.09
2023-01-25T14:05:17.940Z,102852.88
2023-01-25T14:08:03.116Z,102876.16
2023-01-25T14:10:50.047Z,102868.31
2023-01-25T14:13:35.007Z,102869.06
2023-01-25T14:16:20.321Z,102857.88
2023-01-25T14:19:22.461Z,102845.91
2023-01-25T14:22:19.995Z,102829.41
2023-01-25T14:25:07.130Z,102845.91
2023-01-25T14:27:54.781Z,102849.22
2023-01-25T14:31:01.496Z,102821.59
2023-01-25T14:33:48.120Z,102820.78
2023-01-25T14:36:34.670Z,102834.56
2023-01-25T14:39:29.079Z,102831.97
2023-01-25T14:42:16.277Z,102816.25
2023-01-25T14:45:01.162Z,102806.69
2023-01-25T14:47:58.317Z,102791.31
2023-01-25T14:50:44.543Z,102781.00
2023-01-25T14:53:30.862Z,102775.91
2023-01-25T14:56:30.788Z,102781.78
2023-01-25T14:59:27.944Z,102771.38
2023-01-25T15:02:36.005Z,102737.75
2023-01-25T15:05:33.067Z,102775.59
2023-01-25T15:08:36.952Z,102769.50
2023-01-25T15:11:48.929Z,102783.50
2023-01-25T15:14:33.925Z,102749.81
2023-01-25T15:17:45.621Z,102753.97
2023-01-25T15:20:36.784Z,102702.22
2023-01-25T15:23:25.521Z,102686.63
2023-01-25T15:26:31.210Z,102684.81
2023-01-25T15:29:22.549Z,102677.09
2023-01-25T15:32:18.299Z,102665.03
2023-01-25T15:35:04.623Z,102667.53
2023-01-25T15:37:49.678Z,102635.44
2023-01-25T15:40:34.788Z,102635.44
2023-01-25T15:43:19.928Z,102657.84
2023-01-25T15:46:06.776Z,102661.28
2023-01-25T15:48:52.358Z,102646.53
2023-01-25T15:51:37.541Z,102655.13
2023-01-25T15:54:24.285Z,102658.69
2023-01-25T15:57:34.511Z,102655.41
2023-01-25T16:00:23.041Z,102644.03
2023-01-25T16:03:08.486Z,102638.03
2023-01-25T16:05:58.101Z,102638.03
2023-01-25T16:08:43.579Z,102647.31
2023-01-25T16:11:28.654Z,102635.25
2023-01-25T16:14:14.246Z,102643.75
2023-01-25T16:17:05.523Z,102657.63
2023-01-25T16:19:50.843Z,102647.31
2023-01-25T16:22:35.911Z,102641.25
2023-01-25T16:25:21.186Z,102639.53
2023-01-25T16:28:13.677Z,102609.41
2023-01-25T16:30:59.202Z,102630.06
2023-01-25T16:33:44.895Z,102600.81
2023-01-25T16:36:31.534Z,102633.47
2023-01-25T16:39:22.134Z,102654.38
2023-01-25T16:42:09.597Z,102645.69
2023-01-25T16:44:54.887Z,102642.72
2023-01-25T16:47:40.063Z,102655.50
2023-01-25T16:50:25.121Z,102647.81
2023-01-25T16:53:10.500Z,102633.31
2023-01-25T16:55:55.506Z,102650.50
2023-01-25T16:58:40.622Z,102638.50
2023-01-25T17:01:26.136Z,102614.50
2023-01-25T17:04:12.397Z,102622.38
2023-01-25T17:06:58.843Z,102619.78
2023-01-25T17:09:43.977Z,102616.38
2023-01-25T17:12:29.714Z,102608.41
2023-01-25T17:15:14.642Z,102604.09
2023-01-25T17:17:59.787Z,102595.53
2023-01-25T17:20:44.990Z,102592.22
2023-01-25T17:23:36.045Z,102581.91
2023-01-25T17:26:22.100Z,102576.78
2023-01-25T17:29:07.215Z,102582.03
2023-01-25T17:31:52.706Z,102561.41
2023-01-25T17:34:37.809Z,102582.03
2023-01-25T17:37:23.128Z,102568.22
2023-01-25T17:40:10.358Z,102576.69
2023-01-25T17:42:55.651Z,102572.34
2023-01-25T17:45:40.595Z,102568.81
2023-01-25T17:48:26.097Z,102552.50
2023-01-25T17:51:11.157Z,102560.19
2023-01-25T17:53:57.532Z,102562.69
2023-01-25T17:56:42.781Z,102552.28
2023-01-25T17:59:28.088Z,102549.75
2023-01-25T18:02:13.036Z,102554.03
2023-01-25T18:04:58.269Z,102547.94
2023-01-25T18:07:45.187Z,102539.34
2023-01-25T18:10:30.387Z,102538.53
2023-01-25T18:13:15.305Z,102541.22
2023-01-25T18:16:00.885Z,102538.50
2023-01-25T18:18:47.290Z,102529.06
2023-01-25T18:21:33.188Z,102526.47
2023-01-25T18:24:23.533Z,102516.06
2023-01-25T18:27:29.224Z,102510.97
2023-01-25T18:30:29.740Z,102508.31
2023-01-25T18:33:14.934Z,102509.22
2023-01-25T18:36:02.792Z,102510.03
2023-01-25T18:38:47.983Z,102505.78
2023-01-25T18:41:33.204Z,102496.31
2023-01-25T18:44:19.826Z,102504.06
2023-01-25T18:47:05.255Z,102498.06
2023-01-25T18:49:52.161Z,102498.06
2023-01-25T18:52:37.481Z,102480.94
2023-01-25T18:55:22.702Z,102485.13
2023-01-25T18:58:12.207Z,102495.41
2023-01-25T19:01:08.846Z,102490.25
2023-01-25T19:03:53.700Z,102496.31
2023-01-25T19:06:38.796Z,102495.44
2023-01-25T19:09:25.002Z,102486.81
2023-01-25T19:12:10.400Z,102492.91
2023-01-25T19:14:55.559Z,102483.44
2023-01-25T19:17:40.783Z,102476.00
2023-01-25T19:20:27.552Z,102474.25
2023-01-25T19:23:12.541Z,102465.00
2023-01-25T19:25:57.696Z,102474.53
2023-01-25T19:28:43.449Z,102468.53
2023-01-25T19:31:32.064Z,102464.28
2023-01-25T19:34:17.024Z,102459.06
2023-01-25T19:37:02.001Z,102460.72
2023-01-25T19:39:47.248Z,102459.00
2023-01-25T19:42:32.717Z,102444.38
2023-01-25T19:45:17.869Z,102459.91
2023-01-25T19:48:05.426Z,102455.59
2023-01-25T19:50:50.637Z,102445.22
2023-01-25T19:53:35.914Z,102454.78
2023-01-25T19:56:21.386Z,102449.56
2023-01-25T19:59:10.328Z,102440.03
2023-01-25T20:01:55.664Z,102446.13
2023-01-25T20:04:40.903Z,102446.94
2023-01-25T20:07:27.699Z,102440.03
2023-01-25T20:10:13.022Z,102444.41
2023-01-25T20:12:58.048Z,102428.97
2023-01-25T20:15:47.444Z,102433.09
2023-01-25T20:18:33.279Z,102444.38
2023-01-25T20:21:23.537Z,102431.38
2023-01-25T20:24:10.165Z,102441.72
2023-01-25T20:26:58.719Z,102446.88
2023-01-25T20:29:44.207Z,102419.28
2023-01-25T20:32:33.138Z,102432.03
2023-01-25T20:35:18.604Z,102403.56
2023-01-25T20:38:03.929Z,102413.69
2023-01-25T20:40:48.885Z,102411.81
2023-01-25T20:43:34.303Z,102393.69
2023-01-25T20:46:21.420Z,102410.78
2023-01-25T20:49:09.555Z,102408.91
2023-01-25T20:51:54.727Z,102410.56
2023-01-25T20:54:41.583Z,102409.69
2023-01-25T20:57:26.863Z,102420.66
2023-01-25T21:00:12.300Z,102428.44
2023-01-25T21:02:57.163Z,102433.50
2023-01-25T21:06:00.345Z,102427.41
2023-01-25T21:08:45.453Z,102413.63
2023-01-25T21:11:31.172Z,102430.69
2023-01-25T21:14:16.353Z,102429.00
2023-01-25T21:17:01.559Z,102434.97
2023-01-25T21:19:47.997Z,102436.66
2023-01-25T21:22:33.769Z,102438.34
2023-01-25T21:25:18.800Z,102428.81
2023-01-25T21:28:04.286Z,102429.50
2023-01-25T21:30:49.476Z,102396.75
2023-01-25T21:33:35.000Z,102413.78
2023-01-25T21:36:20.794Z,102416.44
2023-01-25T21:39:06.284Z,102406.88
2023-01-25T21:41:51.376Z,102403.38
2023-01-25T21:44:55.162Z,102403.28
2023-01-25T21:47:40.360Z,102404.28
2023-01-25T21:50:44.527Z,102408.56
2023-01-25T21:53:29.581Z,102403.28
2023-01-25T21:56:14.505Z,102409.31
2023-01-25T21:58:59.585Z,102407.50
2023-01-25T22:01:45.442Z,102404.00
2023-01-25T22:04:35.776Z,102394.72
2023-01-25T22:07:21.183Z,102408.34
2023-01-25T22:10:06.738Z,102410.88
2023-01-25T22:12:51.935Z,102406.53
2023-01-25T22:15:37.182Z,102400.47
2023-01-25T22:18:22.153Z,102405.59
2023-01-25T22:21:14.944Z,102401.28
2023-01-25T22:24:02.016Z,102401.31
2023-01-25T22:27:04.460Z,102408.25
2023-01-25T22:29:49.468Z,102417.75
2023-01-25T22:32:34.353Z,102411.59
2023-01-25T22:35:19.641Z,102412.47
2023-01-25T22:38:04.669Z,102410.78
2023-01-25T22:40:49.676Z,102410.72
2023-01-25T22:43:36.086Z,102422.78
2023-01-25T22:46:23.870Z,102416.63
2023-01-25T22:49:09.397Z,102417.53
2023-01-25T22:51:54.548Z,102414.94
2023-01-25T22:54:39.471Z,102411.47
2023-01-25T22:57:24.727Z,102402.97
2023-01-25T23:00:10.909Z,102405.59
2023-01-25T23:02:56.147Z,102421.88
2023-01-25T23:05:41.345Z,102419.28
2023-01-25T23:08:28.611Z,102422.72
2023-01-25T23:11:16.612Z,102428.78
2023-01-25T23:14:21.458Z,102417.44
2023-01-25T23:17:25.343Z,102423.50
2023-01-25T23:20:12.933Z,102422.59
2023-01-25T23:22:58.286Z,102420.03
2023-01-25T23:25:46.124Z,102421.66
2023-01-25T23:28:31.495Z,102413.84
2023-01-25T23:31:17.769Z,102392.56
2023-01-25T23:34:05.514Z,102436.47
2023-01-25T23:36:50.793Z,102426.00
2023-01-25T23:39:36.008Z,102413.16
2023-01-25T23:42:21.244Z,102430.38
2023-01-25T23:45:10.690Z,102435.59
2023-01-25T23:47:55.740Z,102416.81
2023-01-25T23:50:40.867Z,102436.56
2023-01-25T23:53:27.138Z,102436.72
2023-01-25T23:56:14.977Z,102434.13
2023-01-25T23:58:59.859Z,102421.41
